createdAt,value
2018-07-10T00:01:28.482Z,13.00
2018-07-10T00:03:20.831Z,13.40
2018-07-10T00:07:17.708Z,7.00
2018-07-10T00:09:17.351Z,7.80
2018-07-10T00:11:56.630Z,3.00
2018-07-10T00:13:32.362Z,3.00
2018-07-10T00:15:16.676Z,2.20
2018-07-10T00:16:56.680Z,2.60
2018-07-10T00:18:36.746Z,1.60
2018-07-10T00:20:17.620Z,3.00
2018-07-10T00:21:53.945Z,1.80
2018-07-10T00:23:30.162Z,1.00
2018-07-10T00:25:07.220Z,4.00
2018-07-10T00:26:44.605Z,4.00
2018-07-10T00:28:23.109Z,3.40
2018-07-10T00:30:00.151Z,2.20
2018-07-10T00:31:37.107Z,2.20
2018-07-10T00:33:13.133Z,3.00
2018-07-10T00:34:53.381Z,2.20
2018-07-10T00:36:29.362Z,2.40
2018-07-10T00:38:16.131Z,4.00
2018-07-10T00:39:53.676Z,2.20
2018-07-10T00:41:32.539Z,3.00
2018-07-10T00:43:13.429Z,4.00
2018-07-10T00:44:52.142Z,2.20
2018-07-10T00:46:52.230Z,3.00
2018-07-10T00:48:46.532Z,1.00
2018-07-10T00:50:23.702Z,1.00
2018-07-10T00:51:59.186Z,1.80
2018-07-10T00:53:35.491Z,1.00
2018-07-10T00:55:11.036Z,4.00
2018-07-10T00:56:47.675Z,4.00
2018-07-10T00:58:26.458Z,1.40
2018-07-10T01:00:05.502Z,2.60
2018-07-10T01:01:42.979Z,3.00
2018-07-10T01:03:18.310Z,0.60
2018-07-10T01:04:55.480Z,0.80
2018-07-10T01:06:34.898Z,3.00
2018-07-10T01:08:10.525Z,1.00
2018-07-10T01:09:46.525Z,3.20
2018-07-10T01:11:22.367Z,3.80
2018-07-10T01:13:01.228Z,4.20
2018-07-10T01:14:36.837Z,2.60
2018-07-10T01:16:14.622Z,4.00
2018-07-10T01:17:50.241Z,2.20
2018-07-10T01:19:26.810Z,4.00
2018-07-10T01:21:02.529Z,4.00
2018-07-10T01:22:40.718Z,4.00
2018-07-10T01:24:20.808Z,5.20
2018-07-10T01:26:05.394Z,4.00
2018-07-10T01:27:41.579Z,5.60
2018-07-10T01:29:22.722Z,4.00
2018-07-10T01:30:58.351Z,4.40
2018-07-10T01:32:36.451Z,5.20
2018-07-10T01:34:13.165Z,4.80
2018-07-10T01:35:48.346Z,5.20
2018-07-10T01:37:24.036Z,4.00
2018-07-10T01:39:00.180Z,6.40
2018-07-10T01:40:35.884Z,6.00
2018-07-10T01:42:11.195Z,7.00
2018-07-10T01:43:48.198Z,6.20
2018-07-10T01:45:24.481Z,3.60
2018-07-10T01:46:59.826Z,3.40
2018-07-10T01:48:36.019Z,3.00
2018-07-10T01:50:12.341Z,6.00
2018-07-10T01:51:47.535Z,4.20
2018-07-10T01:53:22.776Z,4.60
2018-07-10T01:54:58.202Z,4.40
2018-07-10T01:56:34.750Z,5.20
2018-07-10T01:58:11.221Z,7.00
2018-07-10T01:59:46.593Z,3.20
2018-07-10T02:01:21.443Z,1.80
2018-07-10T02:02:56.303Z,3.60
2018-07-10T02:04:32.090Z,4.00
2018-07-10T02:06:07.063Z,3.00
2018-07-10T02:09:44.276Z,3.80
2018-07-10T02:11:25.204Z,4.00
2018-07-10T02:13:02.354Z,4.40
2018-07-10T02:14:41.374Z,4.40
2018-07-10T02:16:33.822Z,4.00
2018-07-10T02:18:11.775Z,3.00
2018-07-10T02:19:51.045Z,5.60
2018-07-10T02:22:00.926Z,3.00
2018-07-10T02:30:25.632Z,4.00
2018-07-10T02:32:01.539Z,3.00
2018-07-10T02:33:37.071Z,5.60
2018-07-10T02:35:13.503Z,3.00
2018-07-10T02:36:48.774Z,4.00
2018-07-10T02:38:24.512Z,3.00
2018-07-10T02:40:01.078Z,3.80
2018-07-10T02:41:36.841Z,3.00
2018-07-10T02:43:11.964Z,2.20
2018-07-10T02:44:46.972Z,4.00
2018-07-10T02:46:22.295Z,4.00
2018-07-10T02:47:57.562Z,3.00
2018-07-10T02:49:33.028Z,3.00
2018-07-10T02:51:08.797Z,3.60
2018-07-10T02:52:44.938Z,4.80
2018-07-10T02:54:22.812Z,3.80
2018-07-10T02:55:57.806Z,3.20
2018-07-10T02:57:33.368Z,1.40
2018-07-10T02:59:08.580Z,3.60
2018-07-10T03:00:43.744Z,3.80
2018-07-10T03:02:26.798Z,4.00
2018-07-10T03:04:02.044Z,4.00
2018-07-10T03:05:37.757Z,4.40
2018-07-10T03:07:15.893Z,4.00
2018-07-10T03:08:51.021Z,1.40
2018-07-10T03:10:26.395Z,4.00
2018-07-10T03:12:04.158Z,5.60
2018-07-10T03:13:40.409Z,4.00
2018-07-10T03:15:16.890Z,5.20
2018-07-10T03:16:52.296Z,4.00
2018-07-10T03:18:28.448Z,3.40
2018-07-10T03:20:06.544Z,3.00
2018-07-10T03:21:41.790Z,4.00
2018-07-10T03:23:16.833Z,3.00
2018-07-10T03:24:52.060Z,4.40
2018-07-10T03:26:27.251Z,3.00
2018-07-10T03:28:02.820Z,3.00
2018-07-10T03:29:38.268Z,3.00
2018-07-10T03:31:15.928Z,3.00
2018-07-10T03:32:51.298Z,6.00
2018-07-10T03:34:27.286Z,6.20
2018-07-10T03:36:06.619Z,7.00
2018-07-10T03:37:44.311Z,6.00
2018-07-10T03:39:19.441Z,6.00
2018-07-10T03:40:55.275Z,6.20
2018-07-10T03:42:31.263Z,6.60
2018-07-10T03:44:07.525Z,5.60
2018-07-10T03:45:43.947Z,4.00
2018-07-10T03:47:20.736Z,6.40
2018-07-10T03:48:56.972Z,6.00
2018-07-10T03:50:35.704Z,3.00
2018-07-10T03:52:18.590Z,5.20
2018-07-10T03:53:53.860Z,3.40
2018-07-10T03:55:33.353Z,9.00
2018-07-10T03:57:09.779Z,7.80
2018-07-10T03:58:50.125Z,5.60
2018-07-10T04:00:28.342Z,6.80
2018-07-10T04:02:07.793Z,6.00
2018-07-10T04:05:38.065Z,8.20
2018-07-10T04:07:13.220Z,5.60
2018-07-10T04:08:52.154Z,6.80
2018-07-10T04:10:32.334Z,6.80
2018-07-10T04:12:07.720Z,4.00
2018-07-10T04:13:44.291Z,4.80
2018-07-10T04:15:20.399Z,4.80
2018-07-10T04:16:56.028Z,6.80
2018-07-10T04:18:34.441Z,7.00
2018-07-10T04:20:11.186Z,9.00
2018-07-10T04:21:54.696Z,7.00
2018-07-10T04:23:39.498Z,4.80
2018-07-10T04:25:14.933Z,8.60
2018-07-10T04:27:29.128Z,7.20
2018-07-10T04:29:12.005Z,6.20
2018-07-10T04:30:58.936Z,6.40
2018-07-10T04:32:35.173Z,4.40
2018-07-10T04:34:11.439Z,7.00
2018-07-10T04:35:47.194Z,6.00
2018-07-10T04:37:34.736Z,7.00
2018-07-10T04:39:36.532Z,6.20
2018-07-10T04:41:26.113Z,6.00
2018-07-10T04:43:02.615Z,4.80
2018-07-10T04:44:37.978Z,5.20
2018-07-10T04:46:14.859Z,6.00
2018-07-10T04:48:00.845Z,7.00
2018-07-10T04:49:44.262Z,6.80
2018-07-10T04:51:29.743Z,4.40
2018-07-10T04:53:08.690Z,3.20
2018-07-10T04:54:48.581Z,6.00
2018-07-10T04:56:24.761Z,6.00
2018-07-10T04:58:07.940Z,6.80
2018-07-10T04:59:43.113Z,6.40
2018-07-10T05:01:18.205Z,6.40
2018-07-10T05:02:54.214Z,6.60
2018-07-10T05:04:29.972Z,5.60
2018-07-10T05:06:10.363Z,4.60
2018-07-10T05:07:45.916Z,3.20
2018-07-10T05:09:21.615Z,6.80
2018-07-10T05:11:01.520Z,5.20
2018-07-10T05:12:37.104Z,6.00
2018-07-10T05:14:13.025Z,4.80
2018-07-10T05:15:53.117Z,5.00
2018-07-10T05:17:29.154Z,5.20
2018-07-10T05:19:05.130Z,6.40
2018-07-10T05:20:44.839Z,5.20
2018-07-10T05:22:21.322Z,4.40
2018-07-10T05:24:11.543Z,5.20
2018-07-10T05:25:55.125Z,6.00
2018-07-10T05:27:33.334Z,4.00
2018-07-10T05:29:13.620Z,1.40
2018-07-10T05:30:55.161Z,4.80
2018-07-10T05:32:31.598Z,3.00
2018-07-10T05:34:09.210Z,4.00
2018-07-10T05:35:45.539Z,1.80
2018-07-10T05:37:35.945Z,3.80
2018-07-10T05:39:11.360Z,7.00
2018-07-10T05:40:46.699Z,1.80
2018-07-10T05:42:21.941Z,5.00
2018-07-10T05:44:02.824Z,4.80
2018-07-10T05:45:39.690Z,3.40
2018-07-10T05:47:14.989Z,3.00
2018-07-10T05:49:01.373Z,4.60
2018-07-10T05:50:37.340Z,5.60
2018-07-10T05:52:13.593Z,4.00
2018-07-10T05:53:50.983Z,0.00
2018-07-10T05:55:30.473Z,4.00
2018-07-10T05:57:08.961Z,5.20
2018-07-10T05:58:47.004Z,3.20
2018-07-10T06:00:23.309Z,4.00
2018-07-10T06:01:59.918Z,3.40
2018-07-10T06:03:36.469Z,4.00
2018-07-10T06:05:12.319Z,2.80
2018-07-10T06:06:49.374Z,1.00
2018-07-10T06:08:25.426Z,2.40
2018-07-10T06:10:03.283Z,2.40
2018-07-10T06:11:38.717Z,2.20
2018-07-10T06:13:14.639Z,4.00
2018-07-10T06:14:52.376Z,4.40
2018-07-10T06:16:30.284Z,1.40
2018-07-10T06:18:06.727Z,4.00
2018-07-10T06:19:42.315Z,2.60
2018-07-10T06:21:22.235Z,3.20
2018-07-10T06:22:58.646Z,2.00
2018-07-10T06:24:36.884Z,0.60
2018-07-10T06:26:14.075Z,2.40
2018-07-10T06:28:02.413Z,3.20
2018-07-10T06:30:19.549Z,1.60
2018-07-10T06:35:05.114Z,1.00
2018-07-10T06:36:48.775Z,2.80
2018-07-10T06:38:28.116Z,2.20
2018-07-10T06:40:12.202Z,1.00
2018-07-10T06:42:07.490Z,3.60
2018-07-10T06:43:50.548Z,4.40
2018-07-10T06:45:26.403Z,2.40
2018-07-10T06:47:02.702Z,2.40
2018-07-10T06:48:44.153Z,4.00
2018-07-10T06:50:23.238Z,4.00
2018-07-10T06:54:13.863Z,3.60
2018-07-10T06:58:00.126Z,2.20
2018-07-10T06:59:46.742Z,3.60
2018-07-10T07:01:24.517Z,1.40
2018-07-10T07:05:05.778Z,1.00
2018-07-10T07:06:43.448Z,1.00
2018-07-10T07:08:21.155Z,1.00
2018-07-10T07:10:01.381Z,2.00
2018-07-10T07:11:41.545Z,1.00
2018-07-10T07:13:18.841Z,2.80
2018-07-10T07:14:56.544Z,2.00
2018-07-10T07:16:34.512Z,3.60
2018-07-10T07:18:19.049Z,2.00
2018-07-10T07:19:58.509Z,2.00
2018-07-10T07:21:35.376Z,4.00
2018-07-10T07:23:13.783Z,2.00
2018-07-10T07:24:50.226Z,1.60
2018-07-10T07:26:43.435Z,3.60
2018-07-10T07:28:39.831Z,2.00
2018-07-10T07:30:23.662Z,3.60
2018-07-10T07:32:00.124Z,5.00
2018-07-10T07:33:36.675Z,5.00
2018-07-10T07:35:13.426Z,6.00
2018-07-10T07:36:49.582Z,6.00
2018-07-10T07:38:33.765Z,5.40
2018-07-10T07:40:16.085Z,5.00
2018-07-10T07:41:54.912Z,3.00
2018-07-10T07:43:35.575Z,6.00
2018-07-10T07:45:18.646Z,5.00
2018-07-10T07:46:57.836Z,8.00
2018-07-10T07:48:35.693Z,6.00
2018-07-10T07:50:13.312Z,6.40
2018-07-10T07:51:53.378Z,7.00
2018-07-10T07:53:33.313Z,7.60
2018-07-10T07:55:09.426Z,8.80
2018-07-10T07:56:48.121Z,5.60
2018-07-10T07:58:25.439Z,8.60
2018-07-10T08:00:01.294Z,7.40
2018-07-10T08:01:37.761Z,6.80
2018-07-10T08:03:15.734Z,8.00
2018-07-10T08:04:53.803Z,7.00
2018-07-10T08:06:33.457Z,7.00
2018-07-10T08:08:16.115Z,9.40
2018-07-10T08:10:19.221Z,8.60
2018-07-10T08:12:01.272Z,9.00
2018-07-10T08:13:38.255Z,7.40
2018-07-10T08:15:20.668Z,8.80
2018-07-10T08:17:02.368Z,6.00
2018-07-10T08:18:40.161Z,9.40
2018-07-10T08:20:17.653Z,9.00
2018-07-10T08:21:58.577Z,9.60
2018-07-10T08:23:34.696Z,11.80
2018-07-10T08:25:10.677Z,13.60
2018-07-10T08:26:50.325Z,13.60
2018-07-10T08:28:30.854Z,9.40
2018-07-10T08:30:14.032Z,9.40
2018-07-10T08:31:51.254Z,11.00
2018-07-10T08:33:28.616Z,11.40
2018-07-10T08:35:05.573Z,7.60
2018-07-10T08:36:41.819Z,9.20
2018-07-10T08:38:26.531Z,10.00
2018-07-10T08:40:04.150Z,7.00
2018-07-10T08:41:46.041Z,6.60
2018-07-10T08:43:21.979Z,8.40
2018-07-10T08:44:58.232Z,8.00
2018-07-10T08:46:35.184Z,8.40
2018-07-10T08:48:12.580Z,9.00
2018-07-10T08:49:49.087Z,7.80
2018-07-10T08:53:36.055Z,9.20
2018-07-10T08:55:15.508Z,7.40
2018-07-10T08:56:53.520Z,8.20
2018-07-10T08:58:33.715Z,11.00
2018-07-10T09:00:22.352Z,9.00
2018-07-10T09:01:57.795Z,8.40
2018-07-10T09:03:35.542Z,8.60
2018-07-10T09:05:14.265Z,8.20
2018-07-10T09:06:55.620Z,9.00
2018-07-10T09:08:43.417Z,9.80
2018-07-10T09:10:20.978Z,8.20
2018-07-10T09:11:57.596Z,8.60
2018-07-10T09:13:35.003Z,9.60
2018-07-10T09:15:16.998Z,4.40
2018-07-10T09:16:54.471Z,8.40
2018-07-10T09:18:31.531Z,8.80
2018-07-10T09:20:08.980Z,8.60
2018-07-10T09:21:56.562Z,7.20
2018-07-10T09:23:34.952Z,9.60
2018-07-10T09:27:01.925Z,9.00
2018-07-10T09:28:42.976Z,11.20
2018-07-10T09:30:21.786Z,8.80
2018-07-10T09:31:58.102Z,9.00
2018-07-10T09:33:34.830Z,9.60
2018-07-10T09:35:11.596Z,11.20
2018-07-10T09:36:48.804Z,11.00
2018-07-10T09:38:24.920Z,8.00
2018-07-10T09:40:06.310Z,9.00
2018-07-10T09:41:48.653Z,8.60
2018-07-10T09:43:27.645Z,11.00
2018-07-10T09:45:08.141Z,8.80
2018-07-10T09:46:44.878Z,10.60
2018-07-10T09:48:25.293Z,9.20
2018-07-10T09:50:03.810Z,9.20
2018-07-10T09:51:42.652Z,11.00
2018-07-10T09:53:19.572Z,11.40
2018-07-10T09:54:57.359Z,10.20
2018-07-10T09:56:34.589Z,7.00
2018-07-10T09:58:11.504Z,9.00
2018-07-10T09:59:49.856Z,7.00
2018-07-10T10:01:33.255Z,5.20
2018-07-10T10:03:14.864Z,5.80
2018-07-10T10:05:20.387Z,6.00
2018-07-10T10:06:56.997Z,6.00
2018-07-10T10:08:35.090Z,6.00
2018-07-10T10:10:11.123Z,6.00
2018-07-10T10:11:48.347Z,6.00
2018-07-10T10:13:24.938Z,4.00
2018-07-10T10:15:09.451Z,7.00
2018-07-10T10:16:49.343Z,4.00
2018-07-10T10:18:28.479Z,2.20
2018-07-10T10:20:08.187Z,4.40
2018-07-10T10:21:51.609Z,3.60
2018-07-10T10:23:27.529Z,5.00
2018-07-10T10:25:11.439Z,4.00
2018-07-10T10:26:55.806Z,4.00
2018-07-10T10:28:34.592Z,7.00
2018-07-10T10:30:13.094Z,5.00
2018-07-10T10:31:52.226Z,7.00
2018-07-10T10:33:31.620Z,8.00
2018-07-10T10:35:16.548Z,4.60
2018-07-10T10:36:53.992Z,7.20
2018-07-10T10:38:29.612Z,4.80
2018-07-10T10:40:11.882Z,4.00
2018-07-10T10:41:51.112Z,4.00
2018-07-10T10:43:34.326Z,4.00
2018-07-10T10:45:12.360Z,5.00
2018-07-10T10:46:48.939Z,5.40
2018-07-10T10:48:26.062Z,3.00
2018-07-10T10:50:03.037Z,4.00
2018-07-10T10:51:39.347Z,4.00
2018-07-10T10:53:14.417Z,4.00
2018-07-10T10:54:52.283Z,4.00
2018-07-10T10:56:28.487Z,4.20
2018-07-10T10:58:05.670Z,5.20
2018-07-10T10:59:42.518Z,5.00
2018-07-10T11:01:22.959Z,4.00
2018-07-10T11:02:58.871Z,4.60
2018-07-10T11:04:37.354Z,5.80
2018-07-10T11:06:14.516Z,3.80
2018-07-10T11:07:51.007Z,5.00
2018-07-10T11:09:28.092Z,4.60
2018-07-10T11:11:06.544Z,4.40
2018-07-10T11:12:44.006Z,4.00
2018-07-10T11:14:20.445Z,4.00
2018-07-10T11:16:01.628Z,5.00
2018-07-10T11:17:55.289Z,5.00
2018-07-10T11:19:44.701Z,6.00
2018-07-10T11:22:29.193Z,3.40
2018-07-10T11:24:05.734Z,12.40
2018-07-10T11:25:48.124Z,6.80
2018-07-10T11:27:37.665Z,7.60
2018-07-10T11:29:15.376Z,6.60
2018-07-10T11:30:57.453Z,6.20
2018-07-10T11:32:37.722Z,8.00
2018-07-10T11:34:15.350Z,4.00
2018-07-10T11:35:53.595Z,5.40
2018-07-10T11:37:29.737Z,6.60
2018-07-10T11:39:14.055Z,5.00
2018-07-10T11:40:51.206Z,7.80
2018-07-10T11:42:30.370Z,8.80
2018-07-10T11:44:14.036Z,6.80
2018-07-10T11:45:50.691Z,4.80
2018-07-10T11:47:26.304Z,5.80
2018-07-10T11:49:03.950Z,9.40
2018-07-10T11:50:40.287Z,4.40
2018-07-10T11:52:17.801Z,8.80
2018-07-10T11:55:02.372Z,7.60
2018-07-10T11:56:45.384Z,9.00
2018-07-10T11:58:22.539Z,14.20
2018-07-10T12:00:01.049Z,8.80
2018-07-10T12:01:37.066Z,7.40
2018-07-10T12:03:12.990Z,6.60
2018-07-10T12:04:54.735Z,6.40
2018-07-10T12:06:31.886Z,4.40
2018-07-10T12:08:14.130Z,6.40
2018-07-10T12:10:00.835Z,6.00
2018-07-10T12:11:37.507Z,9.20
2018-07-10T12:13:17.450Z,8.00
2018-07-10T12:14:59.847Z,8.00
2018-07-10T12:16:37.116Z,8.00
2018-07-10T12:18:16.244Z,7.20
2018-07-10T12:19:54.426Z,6.00
2018-07-10T12:21:32.289Z,4.00
2018-07-10T12:23:14.923Z,7.00
2018-07-10T12:24:51.620Z,6.60
2018-07-10T12:26:29.229Z,4.40
2018-07-10T12:29:55.120Z,4.20
2018-07-10T12:31:34.166Z,4.40
2018-07-10T12:34:55.839Z,5.40
2018-07-10T12:36:35.027Z,7.00
2018-07-10T12:38:12.370Z,3.60
2018-07-10T12:39:49.324Z,4.00
2018-07-10T12:41:27.910Z,6.20
2018-07-10T12:43:06.749Z,4.40
2018-07-10T12:44:43.624Z,4.80
2018-07-10T12:46:19.276Z,4.00
2018-07-10T12:47:56.679Z,1.40
2018-07-10T12:49:39.317Z,4.80
2018-07-10T12:51:21.018Z,5.40
2018-07-10T12:53:04.445Z,4.80
2018-07-10T12:54:42.746Z,4.60
2018-07-10T12:56:24.648Z,5.80
2018-07-10T12:58:05.981Z,5.00
2018-07-10T12:59:48.756Z,5.20
2018-07-10T13:01:31.231Z,4.80
2018-07-10T13:03:12.733Z,5.00
2018-07-10T13:04:53.559Z,8.40
2018-07-10T13:08:20.515Z,7.00
2018-07-10T13:09:59.459Z,4.40
2018-07-10T13:11:38.519Z,5.80
2018-07-10T13:15:03.212Z,7.80
2018-07-10T13:16:41.225Z,7.80
2018-07-10T13:18:51.106Z,7.00
2018-07-10T13:20:29.221Z,7.40
2018-07-10T13:22:07.133Z,6.60
2018-07-10T13:23:45.077Z,7.40
2018-07-10T13:25:25.373Z,4.40
2018-07-10T13:27:08.266Z,6.00
2018-07-10T13:28:45.126Z,5.00
2018-07-10T13:30:20.547Z,5.80
2018-07-10T13:31:58.083Z,5.00
2018-07-10T13:33:34.939Z,4.80
2018-07-10T13:35:10.559Z,5.00
2018-07-10T13:37:04.008Z,6.00
2018-07-10T13:38:42.747Z,7.00
2018-07-10T13:40:19.689Z,4.40
2018-07-10T13:41:55.706Z,6.00
2018-07-10T13:43:32.586Z,6.00
2018-07-10T13:45:08.705Z,6.00
2018-07-10T13:46:45.015Z,2.80
2018-07-10T13:48:23.601Z,8.00
2018-07-10T13:50:00.175Z,6.00
2018-07-10T13:51:41.274Z,7.40
2018-07-10T13:53:17.634Z,7.00
2018-07-10T13:54:55.993Z,7.20
2018-07-10T13:56:33.536Z,7.00
2018-07-10T13:58:21.325Z,7.00
2018-07-10T13:59:58.311Z,7.40
2018-07-10T14:01:35.118Z,4.60
2018-07-10T14:03:10.544Z,5.80
2018-07-10T14:04:48.823Z,7.40
2018-07-10T14:06:27.341Z,10.40
2018-07-10T14:08:04.595Z,8.60
2018-07-10T14:09:44.147Z,11.80
2018-07-10T14:11:26.700Z,10.40
2018-07-10T14:14:48.629Z,9.20
2018-07-10T14:16:26.652Z,11.80
2018-07-10T14:18:09.219Z,10.00
2018-07-10T14:19:46.289Z,9.00
2018-07-10T14:21:38.706Z,11.00
2018-07-10T14:23:15.316Z,10.60
2018-07-10T14:25:01.740Z,11.00
2018-07-10T14:26:37.512Z,9.20
2018-07-10T14:28:15.637Z,11.60
2018-07-10T14:29:54.765Z,11.80
2018-07-10T14:31:32.996Z,8.00
2018-07-10T14:33:11.273Z,9.40
2018-07-10T14:34:55.859Z,12.40
2018-07-10T14:36:39.664Z,12.00
2018-07-10T14:38:26.782Z,10.00
2018-07-10T14:40:03.608Z,9.00
2018-07-10T14:41:39.598Z,8.20
2018-07-10T14:43:22.029Z,9.00
2018-07-10T14:45:00.688Z,11.40
2018-07-10T14:46:38.701Z,11.60
2018-07-10T14:48:18.976Z,12.20
2018-07-10T14:49:54.759Z,12.40
2018-07-10T14:51:43.886Z,11.00
2018-07-10T14:53:21.889Z,12.20
2018-07-10T14:56:39.481Z,15.00
2018-07-10T14:58:22.804Z,13.20
2018-07-10T14:59:59.570Z,12.20
2018-07-10T15:01:37.158Z,12.60
2018-07-10T15:03:27.705Z,12.00
2018-07-10T15:05:05.749Z,14.80
2018-07-10T15:06:41.680Z,12.60
2018-07-10T15:08:23.713Z,14.20
2018-07-10T15:10:00.410Z,13.00
2018-07-10T15:11:37.630Z,13.00
2018-07-10T15:13:13.870Z,13.60
2018-07-10T15:14:52.327Z,16.60
2018-07-10T15:16:28.438Z,16.00
2018-07-10T15:18:10.026Z,7.60
2018-07-10T15:19:47.761Z,14.80
2018-07-10T15:21:25.794Z,16.00
2018-07-10T15:23:06.277Z,15.80
2018-07-10T15:24:41.853Z,18.00
2018-07-10T15:26:16.943Z,16.60
2018-07-10T15:27:53.469Z,18.20
2018-07-10T15:29:29.826Z,18.20
2018-07-10T15:31:05.299Z,17.20
2018-07-10T15:32:41.401Z,16.80
2018-07-10T15:34:18.251Z,16.20
2018-07-10T15:35:53.250Z,14.60
2018-07-10T15:37:33.846Z,16.00
2018-07-10T15:39:09.468Z,17.60
2018-07-10T15:40:46.095Z,18.40
2018-07-10T15:42:21.756Z,17.20
2018-07-10T15:44:01.154Z,16.60
2018-07-10T15:45:38.752Z,19.00
2018-07-10T15:47:16.753Z,16.00
2018-07-10T15:50:36.263Z,18.60
2018-07-10T15:52:12.508Z,19.60
2018-07-10T15:53:52.509Z,16.40
2018-07-10T15:55:29.696Z,18.80
2018-07-10T15:57:07.312Z,12.40
2018-07-10T15:58:44.542Z,19.00
2018-07-10T16:00:25.079Z,16.00
2018-07-10T16:02:06.101Z,16.00
2018-07-10T16:03:46.434Z,16.20
2018-07-10T16:05:24.845Z,17.60
2018-07-10T16:07:11.263Z,19.20
2018-07-10T16:08:57.871Z,17.40
2018-07-10T16:10:36.705Z,15.80
2018-07-10T16:12:14.631Z,16.20
2018-07-10T16:13:56.563Z,19.00
2018-07-10T16:15:33.937Z,8.20
2018-07-10T16:17:24.077Z,15.00
2018-07-10T16:19:08.736Z,15.80
2018-07-10T16:20:50.004Z,15.00
2018-07-10T16:23:34.192Z,16.20
2018-07-10T16:25:14.115Z,16.00
2018-07-10T16:26:50.328Z,15.80
2018-07-10T16:28:30.889Z,15.00
2018-07-10T16:30:09.610Z,15.00
2018-07-10T16:31:47.199Z,15.20
2018-07-10T16:33:35.334Z,15.40
2018-07-10T16:35:11.497Z,13.80
2018-07-10T16:36:47.982Z,14.00
2018-07-10T16:38:24.748Z,14.20
2018-07-10T16:40:00.310Z,17.40
2018-07-10T16:41:43.208Z,18.20
2018-07-10T16:43:27.290Z,19.00
2018-07-10T16:45:06.484Z,17.40
2018-07-10T16:46:47.498Z,17.60
2018-07-10T16:49:32.158Z,14.80
2018-07-10T16:51:17.724Z,15.20
2018-07-10T16:53:03.591Z,12.40
2018-07-10T16:54:45.759Z,17.40
2018-07-10T16:56:23.153Z,18.00
2018-07-10T16:58:02.370Z,16.20
2018-07-10T16:59:42.909Z,15.00
2018-07-10T17:01:19.863Z,15.40
2018-07-10T17:02:57.710Z,16.60
2018-07-10T17:04:34.056Z,20.20
2018-07-10T17:06:11.540Z,15.60
2018-07-10T17:07:50.591Z,12.60
2018-07-10T17:09:28.615Z,14.00
2018-07-10T17:11:04.280Z,16.00
2018-07-10T17:12:42.429Z,15.60
2018-07-10T17:14:19.316Z,14.80
2018-07-10T17:15:55.493Z,12.20
2018-07-10T17:17:32.380Z,14.40
2018-07-10T17:19:10.234Z,17.80
2018-07-10T17:20:49.678Z,11.00
2018-07-10T17:22:28.682Z,25.20
2018-07-10T17:24:11.390Z,9.80
2018-07-10T17:25:49.990Z,12.00
2018-07-10T17:27:33.318Z,11.00
2018-07-10T17:29:13.607Z,12.20
2018-07-10T17:30:48.741Z,11.20
2018-07-10T17:32:25.326Z,13.60
2018-07-10T17:34:04.687Z,9.20
2018-07-10T17:35:43.304Z,11.20
2018-07-10T17:37:20.899Z,6.80
2018-07-10T17:40:58.366Z,14.00
2018-07-10T17:42:38.083Z,13.40
2018-07-10T17:44:18.585Z,12.20
2018-07-10T17:45:59.485Z,13.60
2018-07-10T17:47:37.227Z,11.40
2018-07-10T17:49:13.555Z,12.80
2018-07-10T17:50:56.675Z,11.20
2018-07-10T17:52:38.421Z,13.60
2018-07-10T17:54:18.221Z,14.00
2018-07-10T17:56:08.343Z,13.60
2018-07-10T17:57:55.090Z,12.40
2018-07-10T17:59:43.185Z,11.60
2018-07-10T18:01:26.942Z,11.60
2018-07-10T18:03:09.702Z,12.00
2018-07-10T18:04:50.229Z,12.00
2018-07-10T18:06:28.479Z,12.20
2018-07-10T18:08:23.413Z,12.00
2018-07-10T18:10:09.828Z,16.20
2018-07-10T18:12:01.311Z,13.60
2018-07-10T18:13:40.985Z,17.80
2018-07-10T18:15:18.743Z,16.20
2018-07-10T18:16:58.717Z,13.80
2018-07-10T18:18:38.592Z,17.20
2018-07-10T18:20:26.550Z,13.80
2018-07-10T18:22:14.316Z,12.60
2018-07-10T18:24:01.822Z,13.20
2018-07-10T18:27:34.895Z,16.00
2018-07-10T18:29:13.745Z,11.60
2018-07-10T18:30:51.261Z,17.00
2018-07-10T18:32:33.404Z,14.60
2018-07-10T18:34:19.849Z,16.60
2018-07-10T18:35:58.811Z,14.20
2018-07-10T18:37:39.063Z,15.00
2018-07-10T18:39:33.539Z,15.20
2018-07-10T18:41:16.177Z,12.80
2018-07-10T18:42:56.591Z,13.60
2018-07-10T18:44:39.026Z,13.20
2018-07-10T18:46:21.740Z,14.40
2018-07-10T18:48:00.490Z,16.60
2018-07-10T18:49:46.962Z,14.00
2018-07-10T18:51:31.583Z,14.00
2018-07-10T18:53:15.291Z,14.40
2018-07-10T18:54:54.049Z,13.60
2018-07-10T18:56:41.279Z,18.00
2018-07-10T18:58:38.326Z,14.60
2018-07-10T19:00:28.565Z,14.80
2018-07-10T19:02:18.176Z,16.80
2018-07-10T19:05:57.941Z,16.20
2018-07-10T19:07:45.316Z,17.20
2018-07-10T19:09:38.357Z,14.40
2018-07-10T19:11:31.291Z,14.60
2018-07-10T19:13:08.812Z,17.00
2018-07-10T19:14:46.377Z,14.00
2018-07-10T19:16:25.813Z,15.60
2018-07-10T19:18:10.503Z,14.80
2018-07-10T19:19:50.114Z,13.40
2018-07-10T19:21:36.709Z,13.00
2018-07-10T19:23:48.533Z,16.20
2018-07-10T19:25:30.502Z,11.20
2018-07-10T19:27:12.311Z,14.60
2018-07-10T19:28:54.329Z,13.00
2018-07-10T19:30:41.671Z,11.20
2018-07-10T19:32:19.064Z,13.00
2018-07-10T19:33:58.345Z,14.60
2018-07-10T19:35:42.094Z,15.20
2018-07-10T19:37:22.805Z,11.60
2018-07-10T19:39:06.786Z,9.00
2018-07-10T19:40:53.324Z,10.60
2018-07-10T19:42:31.456Z,13.80
2018-07-10T19:44:09.489Z,13.60
2018-07-10T19:45:46.724Z,12.60
2018-07-10T19:47:24.940Z,13.40
2018-07-10T19:49:01.206Z,12.20
2018-07-10T19:50:42.624Z,13.80
2018-07-10T19:52:26.278Z,14.20
2018-07-10T19:54:18.726Z,14.00
2018-07-10T19:55:57.747Z,15.00
2018-07-10T19:58:42.782Z,10.60
2018-07-10T20:00:27.405Z,13.00
2018-07-10T20:02:05.925Z,14.80
2018-07-10T20:03:50.108Z,16.20
2018-07-10T20:05:57.744Z,15.40
2018-07-10T20:07:43.471Z,10.40
2018-07-10T20:09:53.286Z,14.60
2018-07-10T20:11:43.016Z,16.80
2018-07-10T20:17:54.061Z,13.40
2018-07-10T20:19:52.173Z,9.80
2018-07-10T20:21:39.882Z,10.60
2018-07-10T20:23:25.342Z,12.00
2018-07-10T20:25:11.259Z,11.20
2018-07-10T20:30:54.695Z,13.40
2018-07-10T20:32:41.217Z,13.80
2018-07-10T20:34:41.769Z,12.60
2018-07-10T20:38:19.729Z,14.60
2018-07-10T20:39:55.556Z,10.00
2018-07-10T20:41:46.593Z,14.20
2018-07-10T20:43:23.848Z,12.00
2018-07-10T20:45:16.252Z,12.00
2018-07-10T20:47:05.915Z,10.00
2018-07-10T20:48:57.574Z,10.40
2018-07-10T20:51:12.448Z,10.00
2018-07-10T20:53:29.052Z,10.80
2018-07-10T20:55:09.751Z,7.80
2018-07-10T20:56:58.611Z,10.00
2018-07-10T20:58:45.781Z,6.00
2018-07-10T21:02:38.603Z,12.80
2018-07-10T21:05:00.629Z,9.80
2018-07-10T21:07:01.504Z,9.00
2018-07-10T21:09:18.588Z,4.40
2018-07-10T21:12:08.360Z,8.20
2018-07-10T21:13:59.181Z,3.60
2018-07-10T21:15:53.537Z,10.00
2018-07-10T21:19:43.741Z,9.80
2018-07-10T21:22:35.932Z,9.00
2018-07-10T21:24:18.963Z,7.00
2018-07-10T21:26:20.692Z,11.20
2018-07-10T21:30:13.470Z,9.00
2018-07-10T21:32:13.304Z,8.20
2018-07-10T21:34:02.991Z,8.60
2018-07-10T21:35:53.491Z,6.00
2018-07-10T21:37:46.677Z,6.40
2018-07-10T21:39:34.660Z,9.80
2018-07-10T21:43:25.112Z,9.40
2018-07-10T21:45:17.380Z,7.00
2018-07-10T21:47:03.616Z,8.60
2018-07-10T21:50:52.249Z,5.20
2018-07-10T21:52:29.921Z,8.60
2018-07-10T21:54:06.159Z,7.40
2018-07-10T21:55:42.320Z,7.80
2018-07-10T21:57:25.685Z,7.40
2018-07-10T21:59:01.821Z,5.20
2018-07-10T22:01:51.721Z,10.00
2018-07-10T22:03:28.680Z,7.00
2018-07-10T22:05:10.727Z,6.40
2018-07-10T22:06:50.789Z,9.00
2018-07-10T22:08:33.069Z,9.00
2018-07-10T22:10:13.643Z,7.40
2018-07-10T22:11:49.877Z,8.60
2018-07-10T22:13:26.929Z,9.80
2018-07-10T22:15:07.322Z,7.80
2018-07-10T22:16:47.087Z,6.00
2018-07-10T22:18:26.091Z,7.40
2018-07-10T22:20:06.870Z,8.00
2018-07-10T22:21:44.192Z,7.40
2018-07-10T22:23:23.732Z,9.80
2018-07-10T22:25:03.290Z,10.80
2018-07-10T22:26:40.976Z,9.00
2018-07-10T22:28:25.254Z,8.60
2018-07-10T22:32:11.178Z,5.60
2018-07-10T22:33:48.088Z,7.80
2018-07-10T22:35:29.627Z,7.80
2018-07-10T22:37:08.563Z,10.20
2018-07-10T22:38:45.117Z,10.00
2018-07-10T22:40:21.750Z,10.20
2018-07-10T22:41:58.421Z,12.60
2018-07-10T22:43:34.721Z,9.60
2018-07-10T22:45:16.480Z,13.00
2018-07-10T22:46:52.192Z,9.80
2018-07-10T22:48:28.340Z,12.20
2018-07-10T22:50:09.390Z,10.40
2018-07-10T22:51:44.723Z,9.80
2018-07-10T22:53:20.712Z,11.20
2018-07-10T22:54:58.444Z,11.20
2018-07-10T22:56:37.834Z,4.60
2018-07-10T22:58:14.944Z,11.60
2018-07-10T22:59:51.034Z,10.60
2018-07-10T23:01:28.534Z,9.40
2018-07-10T23:03:18.744Z,6.40
2018-07-10T23:04:56.278Z,8.20
2018-07-10T23:06:33.107Z,9.00
2018-07-10T23:08:09.427Z,9.40
2018-07-10T23:09:51.408Z,4.40
2018-07-10T23:11:34.200Z,5.80
2018-07-10T23:13:10.979Z,8.60
2018-07-10T23:14:51.649Z,9.40
2018-07-10T23:16:32.036Z,10.20
2018-07-10T23:18:15.254Z,10.80
2018-07-10T23:19:56.978Z,6.60